sensor_id;sensor_type;location;lat;lon;timestamp;pressure;altitude;pressure_sealevel;temperature;humidity
33265;BME280;31404;53.974;-1.086;2023-08-24T00:00:37;101453.67;;;19.84;87.24
33265;BME280;31404;53.974;-1.086;2023-08-24T00:05:36;101458.02;;;20.22;84.20
33265;BME280;31404;53.974;-1.086;2023-08-24T00:10:36;101452.43;;;19.10;91.39
33265;BME280;31404;53.974;-1.086;2023-08-24T00:15:36;101450.04;;;20.63;83.28
33265;BME280;31404;53.974;-1.086;2023-08-24T00:20:35;101449.33;;;20.14;84.34
33265;BME280;31404;53.974;-1.086;2023-08-24T00:25:35;101454.34;;;20.56;82.71
33265;BME280;31404;53.974;-1.086;2023-08-24T00:30:35;101442.31;;;18.30;93.43
33265;BME280;31404;53.974;-1.086;2023-08-24T00:35:35;101429.84;;;17.43;100.00
33265;BME280;31404;53.974;-1.086;2023-08-24T00:40:35;101428.85;;;17.48;100.00
33265;BME280;31404;53.974;-1.086;2023-08-24T00:45:36;101427.76;;;18.09;98.66
33265;BME280;31404;53.974;-1.086;2023-08-24T00:50:36;101421.48;;;18.34;96.63
33265;BME280;31404;53.974;-1.086;2023-08-24T00:55:35;101409.88;;;19.76;88.49
33265;BME280;31404;53.974;-1.086;2023-08-24T01:00:35;101409.12;;;19.99;85.50
33265;BME280;31404;53.974;-1.086;2023-08-24T01:05:35;101411.91;;;19.72;86.77
33265;BME280;31404;53.974;-1.086;2023-08-24T01:15:38;101419.64;;;19.29;87.08
33265;BME280;31404;53.974;-1.086;2023-08-24T01:20:38;101412.09;;;19.86;85.52
33265;BME280;31404;53.974;-1.086;2023-08-24T01:25:40;101394.51;;;19.63;86.15
33265;BME280;31404;53.974;-1.086;2023-08-24T01:30:35;101381.71;;;20.31;82.58
33265;BME280;31404;53.974;-1.086;2023-08-24T01:35:36;101374.03;;;18.33;92.28
33265;BME280;31404;53.974;-1.086;2023-08-24T01:45:35;101373.47;;;19.82;84.72
33265;BME280;31404;53.974;-1.086;2023-08-24T01:50:35;101380.26;;;19.52;83.81
33265;BME280;31404;53.974;-1.086;2023-08-24T01:55:35;101379.07;;;19.77;83.80
33265;BME280;31404;53.974;-1.086;2023-08-24T02:00:36;101380.87;;;19.74;84.66
33265;BME280;31404;53.974;-1.086;2023-08-24T02:05:35;101370.56;;;19.26;86.25
33265;BME280;31404;53.974;-1.086;2023-08-24T02:10:35;101365.84;;;19.16;87.81
33265;BME280;31404;53.974;-1.086;2023-08-24T02:15:37;101373.90;;;19.98;84.30
33265;BME280;31404;53.974;-1.086;2023-08-24T02:20:35;101365.19;;;20.79;80.33
33265;BME280;31404;53.974;-1.086;2023-08-24T02:30:37;101352.76;;;20.21;82.10
33265;BME280;31404;53.974;-1.086;2023-08-24T02:35:35;101338.15;;;20.54;80.55
33265;BME280;31404;53.974;-1.086;2023-08-24T02:40:36;101346.08;;;20.31;80.41
33265;BME280;31404;53.974;-1.086;2023-08-24T02:45:35;101338.76;;;19.54;83.60
33265;BME280;31404;53.974;-1.086;2023-08-24T02:50:36;101327.14;;;19.76;83.45
33265;BME280;31404;53.974;-1.086;2023-08-24T02:55:35;101315.47;;;19.67;84.47
33265;BME280;31404;53.974;-1.086;2023-08-24T03:05:36;101321.29;;;19.84;83.63
33265;BME280;31404;53.974;-1.086;2023-08-24T03:10:35;101310.90;;;20.51;80.31
33265;BME280;31404;53.974;-1.086;2023-08-24T03:15:36;101305.04;;;20.37;80.81
33265;BME280;31404;53.974;-1.086;2023-08-24T03:20:34;101303.43;;;20.09;81.00
33265;BME280;31404;53.974;-1.086;2023-08-24T03:25:37;101305.80;;;19.77;83.33
33265;BME280;31404;53.974;-1.086;2023-08-24T03:30:37;101310.20;;;19.65;83.11
33265;BME280;31404;53.974;-1.086;2023-08-24T03:35:35;101303.27;;;20.49;80.20
33265;BME280;31404;53.974;-1.086;2023-08-24T03:40:34;101299.32;;;20.15;80.99
33265;BME280;31404;53.974;-1.086;2023-08-24T03:45:35;101290.56;;;20.40;80.33
33265;BME280;31404;53.974;-1.086;2023-08-24T03:50:35;101289.73;;;19.82;82.82
33265;BME280;31404;53.974;-1.086;2023-08-24T03:55:36;101284.79;;;19.31;85.30
33265;BME280;31404;53.974;-1.086;2023-08-24T04:00:34;101278.88;;;19.29;85.49
33265;BME280;31404;53.974;-1.086;2023-08-24T04:05:35;101286.07;;;18.59;91.63
33265;BME280;31404;53.974;-1.086;2023-08-24T04:10:35;101283.10;;;19.20;88.78
33265;BME280;31404;53.974;-1.086;2023-08-24T04:15:36;101272.45;;;19.17;87.00
33265;BME280;31404;53.974;-1.086;2023-08-24T04:20:36;101247.63;;;19.44;86.59
33265;BME280;31404;53.974;-1.086;2023-08-24T04:30:36;101246.94;;;19.47;85.91
33265;BME280;31404;53.974;-1.086;2023-08-24T04:35:35;101240.60;;;19.48;84.62
33265;BME280;31404;53.974;-1.086;2023-08-24T04:45:40;101247.12;;;19.54;84.93
33265;BME280;31404;53.974;-1.086;2023-08-24T04:50:35;101244.03;;;20.31;81.64
33265;BME280;31404;53.974;-1.086;2023-08-24T04:55:35;101242.81;;;19.70;83.18
33265;BME280;31404;53.974;-1.086;2023-08-24T05:00:37;101244.47;;;19.65;84.12
33265;BME280;31404;53.974;-1.086;2023-08-24T05:05:35;101234.57;;;18.26;91.63
33265;BME280;31404;53.974;-1.086;2023-08-24T05:10:36;101239.17;;;18.75;90.99
33265;BME280;31404;53.974;-1.086;2023-08-24T05:15:36;101246.60;;;19.60;85.78
33265;BME280;31404;53.974;-1.086;2023-08-24T05:20:34;101237.77;;;19.83;83.79
33265;BME280;31404;53.974;-1.086;2023-08-24T05:25:38;101245.85;;;19.28;86.80
33265;BME280;31404;53.974;-1.086;2023-08-24T05:30:35;101247.64;;;19.49;85.04
33265;BME280;31404;53.974;-1.086;2023-08-24T05:35:35;101254.71;;;19.20;86.35
33265;BME280;31404;53.974;-1.086;2023-08-24T05:40:36;101256.59;;;19.40;86.66
33265;BME280;31404;53.974;-1.086;2023-08-24T05:45:36;101264.70;;;19.56;85.14
33265;BME280;31404;53.974;-1.086;2023-08-24T05:50:35;101263.86;;;15.37;100.00
33265;BME280;31404;53.974;-1.086;2023-08-24T05:55:34;101253.30;;;18.25;97.50
33265;BME280;31404;53.974;-1.086;2023-08-24T06:00:35;101253.79;;;17.73;100.00
33265;BME280;31404;53.974;-1.086;2023-08-24T06:05:35;101244.74;;;19.83;87.33
33265;BME280;31404;53.974;-1.086;2023-08-24T06:10:35;101245.77;;;19.62;86.24
33265;BME280;31404;53.974;-1.086;2023-08-24T06:15:36;101229.35;;;19.77;86.84
33265;BME280;31404;53.974;-1.086;2023-08-24T06:20:36;101220.66;;;19.65;86.54
33265;BME280;31404;53.974;-1.086;2023-08-24T06:25:35;101209.91;;;20.53;82.40
33265;BME280;31404;53.974;-1.086;2023-08-24T06:35:35;101211.37;;;19.51;84.03
33265;BME280;31404;53.974;-1.086;2023-08-24T06:40:36;101206.52;;;19.17;86.91
33265;BME280;31404;53.974;-1.086;2023-08-24T06:45:35;101192.06;;;19.98;83.18
33265;BME280;31404;53.974;-1.086;2023-08-24T06:50:34;101193.91;;;18.47;87.77
33265;BME280;31404;53.974;-1.086;2023-08-24T06:55:35;101197.60;;;18.07;92.96
33265;BME280;31404;53.974;-1.086;2023-08-24T07:00:34;101202.23;;;17.67;95.79
33265;BME280;31404;53.974;-1.086;2023-08-24T07:05:35;101187.71;;;19.24;87.71
33265;BME280;31404;53.974;-1.086;2023-08-24T07:10:35;101163.89;;;20.19;82.20
33265;BME280;31404;53.974;-1.086;2023-08-24T07:15:35;101172.24;;;17.66;99.58
33265;BME280;31404;53.974;-1.086;2023-08-24T07:20:36;101169.08;;;16.63;100.00
33265;BME280;31404;53.974;-1.086;2023-08-24T07:25:35;101150.01;;;17.99;99.83
33265;BME280;31404;53.974;-1.086;2023-08-24T07:30:36;101141.70;;;19.25;89.62
33265;BME280;31404;53.974;-1.086;2023-08-24T07:35:35;101145.29;;;17.87;99.68
33265;BME280;31404;53.974;-1.086;2023-08-24T07:40:35;101155.27;;;18.16;97.96
33265;BME280;31404;53.974;-1.086;2023-08-24T07:45:36;101159.28;;;18.74;95.91
33265;BME280;31404;53.974;-1.086;2023-08-24T07:50:34;101154.60;;;17.54;100.00
33265;BME280;31404;53.974;-1.086;2023-08-24T07:55:34;101159.09;;;15.12;100.00
33265;BME280;31404;53.974;-1.086;2023-08-24T08:00:35;101150.94;;;15.90;100.00
33265;BME280;31404;53.974;-1.086;2023-08-24T08:05:35;101143.52;;;16.37;100.00
33265;BME280;31404;53.974;-1.086;2023-08-24T08:10:35;101137.67;;;17.84;100.00
33265;BME280;31404;53.974;-1.086;2023-08-24T08:15:36;101142.05;;;19.14;95.45
33265;BME280;31404;53.974;-1.086;2023-08-24T08:20:35;101143.58;;;17.30;100.00
33265;BME280;31404;53.974;-1.086;2023-08-24T08:25:35;101137.97;;;18.06;100.00
33265;BME280;31404;53.974;-1.086;2023-08-24T08:30:35;101130.37;;;18.96;94.39
33265;BME280;31404;53.974;-1.086;2023-08-24T08:35:35;101114.64;;;19.44;88.64
33265;BME280;31404;53.974;-1.086;2023-08-24T08:40:37;101106.66;;;17.49;100.00
33265;BME280;31404;53.974;-1.086;2023-08-24T08:45:36;101119.28;;;18.69;91.42
33265;BME280;31404;53.974;-1.086;2023-08-24T08:50:36;101121.25;;;17.31;97.53
33265;BME280;31404;53.974;-1.086;2023-08-24T08:55:34;101123.33;;;18.71;91.63
33265;BME280;31404;53.974;-1.086;2023-08-24T09:00:36;101114.61;;;18.28;95.82
33265;BME280;31404;53.974;-1.086;2023-08-24T09:05:37;101110.17;;;17.24;99.81
33265;BME280;31404;53.974;-1.086;2023-08-24T09:10:34;101105.60;;;18.05;93.72
33265;BME280;31404;53.974;-1.086;2023-08-24T09:15:35;101101.59;;;20.00;83.84
33265;BME280;31404;53.974;-1.086;2023-08-24T09:20:34;101118.88;;;16.12;100.00
33265;BME280;31404;53.974;-1.086;2023-08-24T09:30:35;101117.26;;;17.37;100.00
33265;BME280;31404;53.974;-1.086;2023-08-24T09:35:36;101111.33;;;18.59;93.90
33265;BME280;31404;53.974;-1.086;2023-08-24T09:40:35;101116.83;;;18.91;90.66
33265;BME280;31404;53.974;-1.086;2023-08-24T09:45:34;101121.32;;;15.58;100.00
33265;BME280;31404;53.974;-1.086;2023-08-24T09:50:35;101110.25;;;17.10;100.00
33265;BME280;31404;53.974;-1.086;2023-08-24T09:55:36;101108.12;;;16.26;100.00
33265;BME280;31404;53.974;-1.086;2023-08-24T10:00:36;101100.05;;;18.46;98.57
33265;BME280;31404;53.974;-1.086;2023-08-24T10:05:36;101092.44;;;18.95;92.24
33265;BME280;31404;53.974;-1.086;2023-08-24T10:10:36;101095.63;;;18.26;94.02
33265;BME280;31404;53.974;-1.086;2023-08-24T10:15:36;101090.80;;;18.38;89.49
33265;BME280;31404;53.974;-1.086;2023-08-24T10:20:34;101097.16;;;16.64;100.00
33265;BME280;31404;53.974;-1.086;2023-08-24T10:25:34;101083.68;;;16.09;100.00
33265;BME280;31404;53.974;-1.086;2023-08-24T10:30:36;101078.04;;;17.30;100.00
33265;BME280;31404;53.974;-1.086;2023-08-24T10:35:35;101079.08;;;17.74;100.00
33265;BME280;31404;53.974;-1.086;2023-08-24T10:40:36;101079.09;;;17.14;100.00
33265;BME280;31404;53.974;-1.086;2023-08-24T10:50:34;101068.47;;;19.53;82.25
33265;BME280;31404;53.974;-1.086;2023-08-24T10:55:34;101059.49;;;20.64;75.05
33265;BME280;31404;53.974;-1.086;2023-08-24T11:00:35;101046.08;;;20.72;72.29
33265;BME280;31404;53.974;-1.086;2023-08-24T11:05:35;101048.41;;;21.35;70.97
33265;BME280;31404;53.974;-1.086;2023-08-24T11:15:38;101057.63;;;21.78;69.22
33265;BME280;31404;53.974;-1.086;2023-08-24T11:20:36;101051.17;;;21.79;68.89
33265;BME280;31404;53.974;-1.086;2023-08-24T11:25:35;101034.46;;;20.84;72.13
33265;BME280;31404;53.974;-1.086;2023-08-24T11:30:35;101034.58;;;21.89;70.17
33265;BME280;31404;53.974;-1.086;2023-08-24T11:35:36;101042.71;;;20.17;75.46
33265;BME280;31404;53.974;-1.086;2023-08-24T11:40:36;101042.17;;;19.49;79.31
33265;BME280;31404;53.974;-1.086;2023-08-24T11:45:36;101047.39;;;18.19;86.00
33265;BME280;31404;53.974;-1.086;2023-08-24T11:50:37;101045.65;;;19.08;82.23
33265;BME280;31404;53.974;-1.086;2023-08-24T12:00:35;101047.54;;;18.93;81.44
33265;BME280;31404;53.974;-1.086;2023-08-24T12:05:34;101046.40;;;18.62;84.80
33265;BME280;31404;53.974;-1.086;2023-08-24T12:10:34;101053.51;;;17.18;91.45
33265;BME280;31404;53.974;-1.086;2023-08-24T12:15:35;101069.66;;;16.44;100.00
33265;BME280;31404;53.974;-1.086;2023-08-24T12:20:34;101068.37;;;16.55;100.00
33265;BME280;31404;53.974;-1.086;2023-08-24T12:25:37;101055.01;;;17.95;94.10
33265;BME280;31404;53.974;-1.086;2023-08-24T12:35:36;101065.81;;;18.70;88.70
33265;BME280;31404;53.974;-1.086;2023-08-24T12:40:35;101057.26;;;18.92;89.07
33265;BME280;31404;53.974;-1.086;2023-08-24T12:45:36;101037.66;;;19.59;81.97
33265;BME280;31404;53.974;-1.086;2023-08-24T12:50:37;101040.99;;;19.60;82.57
33265;BME280;31404;53.974;-1.086;2023-08-24T12:55:36;101042.65;;;17.03;100.00
33265;BME280;31404;53.974;-1.086;2023-08-24T13:00:36;101032.78;;;19.00;88.61
33265;BME280;31404;53.974;-1.086;2023-08-24T13:05:35;101027.67;;;19.26;84.12
33265;BME280;31404;53.974;-1.086;2023-08-24T13:10:34;101029.88;;;17.90;88.55
33265;BME280;31404;53.974;-1.086;2023-08-24T13:15:34;101025.41;;;17.63;90.13
33265;BME280;31404;53.974;-1.086;2023-08-24T13:20:34;101029.15;;;17.83;88.56
33265;BME280;31404;53.974;-1.086;2023-08-24T13:25:34;101021.75;;;16.81;94.80
33265;BME280;31404;53.974;-1.086;2023-08-24T13:30:35;101026.51;;;16.11;100.00
33265;BME280;31404;53.974;-1.086;2023-08-24T13:35:35;101017.57;;;17.08;93.47
33265;BME280;31404;53.974;-1.086;2023-08-24T13:40:34;101026.84;;;14.99;100.00
33265;BME280;31404;53.974;-1.086;2023-08-24T13:45:36;101014.61;;;15.68;100.00
33265;BME280;31404;53.974;-1.086;2023-08-24T13:50:35;101012.19;;;14.10;100.00
33265;BME280;31404;53.974;-1.086;2023-08-24T13:55:29;100992.88;;;15.79;100.00
33265;BME280;31404;53.974;-1.086;2023-08-24T14:00:34;100985.81;;;16.96;90.40
33265;BME280;31404;53.974;-1.086;2023-08-24T14:10:34;100978.27;;;18.50;79.96
33265;BME280;31404;53.974;-1.086;2023-08-24T14:15:35;100978.25;;;16.61;85.94
33265;BME280;31404;53.974;-1.086;2023-08-24T14:20:34;100967.45;;;16.79;85.77
33265;BME280;31404;53.974;-1.086;2023-08-24T14:25:34;100973.78;;;15.89;93.15
33265;BME280;31404;53.974;-1.086;2023-08-24T14:30:34;100972.60;;;16.45;89.50
33265;BME280;31404;53.974;-1.086;2023-08-24T14:35:34;100969.76;;;15.65;92.67
33265;BME280;31404;53.974;-1.086;2023-08-24T14:40:34;100960.29;;;17.35;83.89
33265;BME280;31404;53.974;-1.086;2023-08-24T14:45:34;100956.77;;;16.78;84.38
33265;BME280;31404;53.974;-1.086;2023-08-24T14:55:37;100949.80;;;18.38;77.35
33265;BME280;31404;53.974;-1.086;2023-08-24T15:00:35;100938.36;;;16.55;88.48
33265;BME280;31404;53.974;-1.086;2023-08-24T15:10:35;100935.19;;;17.15;86.40
33265;BME280;31404;53.974;-1.086;2023-08-24T15:15:35;100938.35;;;15.51;94.40
33265;BME280;31404;53.974;-1.086;2023-08-24T15:20:35;100926.84;;;16.86;86.76
33265;BME280;31404;53.974;-1.086;2023-08-24T15:25:35;100929.91;;;16.14;86.19
33265;BME280;31404;53.974;-1.086;2023-08-24T15:30:35;100923.25;;;15.35;90.98
33265;BME280;31404;53.974;-1.086;2023-08-24T15:35:34;100923.19;;;15.99;85.27
33265;BME280;31404;53.974;-1.086;2023-08-24T15:40:35;100927.02;;;17.15;78.61
33265;BME280;31404;53.974;-1.086;2023-08-24T15:45:35;100926.17;;;16.42;80.08
33265;BME280;31404;53.974;-1.086;2023-08-24T15:50:35;100911.89;;;16.99;77.87
33265;BME280;31404;53.974;-1.086;2023-08-24T15:55:35;100908.49;;;16.56;79.79
33265;BME280;31404;53.974;-1.086;2023-08-24T16:00:35;100914.74;;;16.43;76.40
33265;BME280;31404;53.974;-1.086;2023-08-24T16:05:34;100914.42;;;16.77;73.51
33265;BME280;31404;53.974;-1.086;2023-08-24T16:10:34;100918.91;;;15.95;74.26
33265;BME280;31404;53.974;-1.086;2023-08-24T16:15:34;100927.60;;;15.39;78.96
33265;BME280;31404;53.974;-1.086;2023-08-24T16:20:34;100916.85;;;15.72;76.56
33265;BME280;31404;53.974;-1.086;2023-08-24T16:25:34;100912.73;;;16.12;73.73
33265;BME280;31404;53.974;-1.086;2023-08-24T16:30:35;100910.64;;;14.89;79.01
33265;BME280;31404;53.974;-1.086;2023-08-24T16:35:36;100911.12;;;15.22;75.05
33265;BME280;31404;53.974;-1.086;2023-08-24T16:40:35;100912.44;;;14.88;74.96
33265;BME280;31404;53.974;-1.086;2023-08-24T16:45:35;100912.62;;;13.60;82.58
33265;BME280;31404;53.974;-1.086;2023-08-24T16:50:34;100909.35;;;15.31;75.52
33265;BME280;31404;53.974;-1.086;2023-08-24T16:55:35;100919.67;;;14.36;79.47
33265;BME280;31404;53.974;-1.086;2023-08-24T17:00:34;100919.02;;;14.82;78.71
33265;BME280;31404;53.974;-1.086;2023-08-24T17:05:34;100927.95;;;14.88;76.69
33265;BME280;31404;53.974;-1.086;2023-08-24T17:10:35;100925.02;;;15.07;75.33
33265;BME280;31404;53.974;-1.086;2023-08-24T17:15:35;100923.85;;;14.48;76.16
33265;BME280;31404;53.974;-1.086;2023-08-24T17:20:35;100926.96;;;14.15;76.88
33265;BME280;31404;53.974;-1.086;2023-08-24T17:25:34;100921.03;;;15.47;70.63
33265;BME280;31404;53.974;-1.086;2023-08-24T17:30:35;100915.88;;;15.14;69.55
33265;BME280;31404;53.974;-1.086;2023-08-24T17:35:35;100914.15;;;15.60;68.75
33265;BME280;31404;53.974;-1.086;2023-08-24T17:40:34;100910.68;;;15.51;68.43
33265;BME280;31404;53.974;-1.086;2023-08-24T17:45:35;100909.16;;;16.00;66.46
33265;BME280;31404;53.974;-1.086;2023-08-24T17:50:34;100917.28;;;15.18;68.00
33265;BME280;31404;53.974;-1.086;2023-08-24T17:55:34;100915.62;;;14.72;69.23
33265;BME280;31404;53.974;-1.086;2023-08-24T18:00:34;100916.10;;;14.40;67.43
33265;BME280;31404;53.974;-1.086;2023-08-24T18:05:35;100918.99;;;14.23;69.29
33265;BME280;31404;53.974;-1.086;2023-08-24T18:10:34;100922.34;;;14.11;65.91
33265;BME280;31404;53.974;-1.086;2023-08-24T18:15:35;100918.72;;;15.35;63.45
33265;BME280;31404;53.974;-1.086;2023-08-24T18:20:34;100918.30;;;13.69;67.68
33265;BME280;31404;53.974;-1.086;2023-08-24T18:25:34;100919.90;;;14.06;67.19
33265;BME280;31404;53.974;-1.086;2023-08-24T18:30:34;100928.01;;;13.54;69.51
33265;BME280;31404;53.974;-1.086;2023-08-24T18:35:34;100927.49;;;14.02;68.79
33265;BME280;31404;53.974;-1.086;2023-08-24T18:45:34;100933.53;;;15.02;66.16
33265;BME280;31404;53.974;-1.086;2023-08-24T18:50:35;100939.63;;;14.80;66.93
33265;BME280;31404;53.974;-1.086;2023-08-24T18:55:35;100947.78;;;12.56;73.94
33265;BME280;31404;53.974;-1.086;2023-08-24T19:00:35;100952.23;;;12.68;74.32
33265;BME280;31404;53.974;-1.086;2023-08-24T19:05:34;100954.59;;;14.07;69.65
33265;BME280;31404;53.974;-1.086;2023-08-24T19:10:34;100949.84;;;14.48;68.42
33265;BME280;31404;53.974;-1.086;2023-08-24T19:15:34;100947.74;;;14.81;67.91
33265;BME280;31404;53.974;-1.086;2023-08-24T19:25:34;100950.28;;;14.21;70.04
33265;BME280;31404;53.974;-1.086;2023-08-24T19:30:37;100954.59;;;12.89;75.58
33265;BME280;31404;53.974;-1.086;2023-08-24T19:35:34;100956.00;;;14.16;71.90
33265;BME280;31404;53.974;-1.086;2023-08-24T19:40:36;100957.87;;;13.36;74.77
33265;BME280;31404;53.974;-1.086;2023-08-24T19:45:35;100967.37;;;13.31;77.20
33265;BME280;31404;53.974;-1.086;2023-08-24T19:50:35;100972.45;;;13.78;74.81
33265;BME280;31404;53.974;-1.086;2023-08-24T19:55:34;100977.14;;;14.00;73.70
33265;BME280;31404;53.974;-1.086;2023-08-24T20:00:34;100983.89;;;13.74;75.26
33265;BME280;31404;53.974;-1.086;2023-08-24T20:05:35;100980.78;;;12.67;78.54
33265;BME280;31404;53.974;-1.086;2023-08-24T20:10:34;100975.18;;;12.65;82.00
33265;BME280;31404;53.974;-1.086;2023-08-24T20:15:35;100984.82;;;12.40;81.85
33265;BME280;31404;53.974;-1.086;2023-08-24T20:20:35;100987.84;;;10.93;90.94
33265;BME280;31404;53.974;-1.086;2023-08-24T20:25:35;100975.60;;;12.24;86.24
33265;BME280;31404;53.974;-1.086;2023-08-24T20:30:35;100976.99;;;14.15;76.63
33265;BME280;31404;53.974;-1.086;2023-08-24T20:35:35;100974.02;;;13.78;79.05
33265;BME280;31404;53.974;-1.086;2023-08-24T20:40:34;100977.29;;;13.52;79.40
33265;BME280;31404;53.974;-1.086;2023-08-24T20:45:35;100982.44;;;13.40;79.51
33265;BME280;31404;53.974;-1.086;2023-08-24T20:50:34;100985.96;;;13.22;80.46
33265;BME280;31404;53.974;-1.086;2023-08-24T20:55:34;100993.31;;;13.30;78.72
33265;BME280;31404;53.974;-1.086;2023-08-24T21:05:35;100991.28;;;13.93;76.71
33265;BME280;31404;53.974;-1.086;2023-08-24T21:10:34;100994.19;;;13.37;79.47
33265;BME280;31404;53.974;-1.086;2023-08-24T21:15:34;100992.34;;;15.21;73.05
33265;BME280;31404;53.974;-1.086;2023-08-24T21:20:36;101005.86;;;14.17;76.42
33265;BME280;31404;53.974;-1.086;2023-08-24T21:25:35;100997.32;;;12.97;80.96
33265;BME280;31404;53.974;-1.086;2023-08-24T21:30:30;100996.70;;;14.45;75.33
33265;BME280;31404;53.974;-1.086;2023-08-24T21:35:35;100996.29;;;13.83;79.00
33265;BME280;31404;53.974;-1.086;2023-08-24T21:45:35;100993.20;;;12.35;88.44
33265;BME280;31404;53.974;-1.086;2023-08-24T21:50:35;100995.78;;;12.84;85.04
33265;BME280;31404;53.974;-1.086;2023-08-24T21:55:35;100996.80;;;12.49;85.40
33265;BME280;31404;53.974;-1.086;2023-08-24T22:00:35;100988.98;;;13.17;83.96
33265;BME280;31404;53.974;-1.086;2023-08-24T22:05:34;100995.38;;;9.43;100.00
33265;BME280;31404;53.974;-1.086;2023-08-24T22:10:34;100997.45;;;9.84;100.00
33265;BME280;31404;53.974;-1.086;2023-08-24T22:15:34;100984.73;;;12.57;92.83
33265;BME280;31404;53.974;-1.086;2023-08-24T22:20:35;100987.26;;;12.22;91.46
33265;BME280;31404;53.974;-1.086;2023-08-24T22:25:34;100992.89;;;11.41;97.42
33265;BME280;31404;53.974;-1.086;2023-08-24T22:30:35;100992.67;;;13.41;88.15
33265;BME280;31404;53.974;-1.086;2023-08-24T22:35:35;100994.64;;;11.90;91.19
33265;BME280;31404;53.974;-1.086;2023-08-24T22:40:35;100998.13;;;11.59;95.18
33265;BME280;31404;53.974;-1.086;2023-08-24T22:50:35;100991.58;;;14.02;84.43
33265;BME280;31404;53.974;-1.086;2023-08-24T22:55:34;100988.95;;;14.69;76.58
33265;BME280;31404;53.974;-1.086;2023-08-24T23:00:35;100994.95;;;12.37;87.90
33265;BME280;31404;53.974;-1.086;2023-08-24T23:05:35;100990.97;;;8.44;100.00
33265;BME280;31404;53.974;-1.086;2023-08-24T23:10:34;100979.80;;;11.11;100.00
33265;BME280;31404;53.974;-1.086;2023-08-24T23:15:35;100974.24;;;12.75;91.62
33265;BME280;31404;53.974;-1.086;2023-08-24T23:20:35;100973.18;;;11.03;98.23
33265;BME280;31404;53.974;-1.086;2023-08-24T23:25:35;100962.90;;;12.72;89.90
33265;BME280;31404;53.974;-1.086;2023-08-24T23:30:35;100961.86;;;12.90;88.05
33265;BME280;31404;53.974;-1.086;2023-08-24T23:35:35;100969.22;;;13.40;83.86
33265;BME280;31404;53.974;-1.086;2023-08-24T23:40:34;100964.37;;;12.89;84.85
33265;BME280;31404;53.974;-1.086;2023-08-24T23:45:35;100952.84;;;12.94;84.60
33265;BME280;31404;53.974;-1.086;2023-08-24T23:50:34;100953.40;;;11.56;99.24
33265;BME280;31404;53.974;-1.086;2023-08-24T23:55:37;100954.35;;;12.40;89.94
